Terminal Aerodrome Forecast
Issued by NWS

Home | Current Version | Previous Version | Text Only | Print | Product List | Glossary Off
Versions: 1 2 3 4 5 6 7 8 9 10 11 12 13 14 15 16 17 18 19 20 21 22 23 24 25 26 27 28 29 30 31 32 33 34 35 36 37 38 39 40

000
FTUS43 KGRB 312300
TAFRHI
TAF
KRHI 312323Z 0100/0124 17010KT P6SM SCT100
     FM010200 16006KT P6SM BKN140
     FM010400 16006KT 6SM -SHRA BKN030 OVC060
     FM010900 19008KT 3SM SHRA VCTS BKN015CB OVC030
      TEMPO 0111/0115 2SM +SHRA BKN009 OVC015
     FM011600 24010G16KT 6SM BR VCSH SCT009 OVC015
     FM012000 27010G18KT P6SM SCT015 SCT100=

USA.gov is the U.S. government's official web portal to all federal, state and local government web resources and services.